Time;durP1;ratioP1;P1;durP2;ratioP2;P2;SDS_P1;SDS_P2;PMS_P1;PMS_P2;Temp;Humidity;BMP_temperature;BMP_pressure;BME280_temperature;BME280_humidity;BME280_pressure;Samples;Min_cycle;Max_cycle;Signal;HPM_P1;HPM_P2
2022/04/10 00:00:03;;;;;;;4.93;2.45;;;;;;;6.22;100.00;99634.53;4880163;29;20403;-76
2022/04/10 00:02:32;;;;;;;5.50;2.50;;;;;;;6.20;100.00;99636.41;4897110;29;20044;-74
2022/04/10 00:05:00;;;;;;;4.25;2.50;;;;;;;6.18;100.00;99630.34;4897334;29;20463;-75
2022/04/10 00:07:28;;;;;;;4.40;2.33;;;;;;;6.18;100.00;99631.19;4879858;29;20094;-75
2022/04/10 00:09:56;;;;;;;5.80;2.58;;;;;;;6.16;100.00;99625.09;4897344;29;20367;-76
2022/04/10 00:12:25;;;;;;;3.55;2.00;;;;;;;6.20;100.00;99631.97;4896947;29;20128;-76
2022/04/10 00:14:54;;;;;;;4.53;1.90;;;;;;;6.23;100.00;99626.50;4897241;29;20406;-76
2022/04/10 00:17:23;;;;;;;3.35;1.98;;;;;;;6.13;100.00;99630.56;4896545;29;20119;-77
2022/04/10 00:19:51;;;;;;;2.60;1.75;;;;;;;6.14;100.00;99626.13;4880144;29;20478;-77
2022/04/10 00:22:19;;;;;;;2.95;1.58;;;;;;;6.08;100.00;99627.31;4896869;29;20049;-76
2022/04/10 00:24:47;;;;;;;3.03;1.40;;;;;;;6.17;100.00;99634.75;4880011;29;20415;-77
2022/04/10 00:27:16;;;;;;;3.10;1.55;;;;;;;6.23;100.00;99630.94;4896868;29;20051;-76
2022/04/10 00:29:46;;;;;;;2.08;1.30;;;;;;;6.24;100.00;99617.63;4879703;29;20112;-75
2022/04/10 00:32:15;;;;;;;2.67;1.55;;;;;;;6.17;100.00;99625.97;4897001;29;20045;-76
2022/04/10 00:34:43;;;;;;;3.00;1.50;;;;;;;6.15;100.00;99617.25;4896614;29;20064;-76
2022/04/10 00:37:11;;;;;;;2.53;1.48;;;;;;;6.15;100.00;99607.50;4879950;29;20045;-75
2022/04/10 00:39:40;;;;;;;2.33;1.42;;;;;;;6.16;100.00;99613.66;4879443;29;20052;-76
2022/04/10 00:42:08;;;;;;;6.13;1.63;;;;;;;6.06;100.00;99618.56;4879806;29;20102;-76
2022/04/10 00:44:36;;;;;;;2.67;1.33;;;;;;;6.12;100.00;99618.28;4879652;29;20074;-76
2022/04/10 00:47:05;;;;;;;2.03;1.40;;;;;;;6.11;100.00;99615.72;4896649;29;20049;-77
2022/04/10 00:49:35;;;;;;;3.75;1.50;;;;;;;6.02;100.00;99615.25;4896604;29;20487;-74
2022/04/10 00:52:06;;;;;;;3.03;1.70;;;;;;;5.89;100.00;99622.06;4896512;29;20064;-76
2022/04/10 00:54:36;;;;;;;4.28;1.98;;;;;;;5.86;100.00;99626.66;4896664;29;20049;-75
2022/04/10 00:57:04;;;;;;;3.75;2.08;;;;;;;5.88;100.00;99625.63;4879865;29;20062;-76
2022/04/10 00:59:33;;;;;;;3.60;2.10;;;;;;;5.68;100.00;99629.28;4879383;29;20494;-77
2022/04/10 01:02:01;;;;;;;6.55;2.33;;;;;;;5.69;100.00;99633.66;4896737;29;20083;-76
2022/04/10 01:04:40;;;;;;;4.25;2.10;;;;;;;5.54;100.00;99637.06;4896572;29;20093;-75
2022/04/10 01:07:11;;;;;;;3.75;2.17;;;;;;;5.47;100.00;99646.22;4896463;29;20097;-76
2022/04/10 01:09:41;;;;;;;4.32;2.03;;;;;;;5.46;100.00;99660.38;4896392;29;20044;-76
2022/04/10 01:12:10;;;;;;;3.15;2.10;;;;;;;5.34;100.00;99653.91;4896353;29;20147;-75
2022/04/10 01:14:40;;;;;;;4.63;2.10;;;;;;;5.34;100.00;99660.97;4895989;29;20040;-75
2022/04/10 01:17:09;;;;;;;5.53;2.30;;;;;;;5.44;100.00;99657.81;4879609;29;20123;-76
2022/04/10 01:19:41;;;;;;;4.25;2.40;;;;;;;5.47;100.00;99657.66;4896236;29;20128;-74
2022/04/10 01:22:10;;;;;;;4.85;2.47;;;;;;;5.40;100.00;99669.50;4896726;29;20072;-76
2022/04/10 01:24:42;;;;;;;4.50;2.35;;;;;;;5.40;100.00;99676.53;4896215;29;20048;-76
2022/04/10 01:27:10;;;;;;;6.80;2.63;;;;;;;5.38;100.00;99675.75;4896205;29;20462;-75
2022/04/10 01:29:39;;;;;;;4.28;2.40;;;;;;;5.38;100.00;99688.97;4896505;29;20127;-75
2022/04/10 01:32:08;;;;;;;4.97;2.50;;;;;;;5.26;100.00;99679.84;4900339;29;20124;-76
2022/04/10 01:34:39;;;;;;;3.58;2.40;;;;;;;5.24;100.00;99684.38;4882714;29;20101;-76
2022/04/10 01:37:09;;;;;;;4.05;2.20;;;;;;;5.18;100.00;99687.28;4899818;29;20350;-74
2022/04/10 01:39:37;;;;;;;4.85;2.40;;;;;;;5.16;100.00;99690.00;4899489;29;20452;-78
2022/04/10 01:42:07;;;;;;;6.07;2.58;;;;;;;5.10;100.00;99695.56;4899763;29;20055;-77
2022/04/10 01:44:41;;;;;;;4.43;2.40;;;;;;;5.20;100.00;99697.78;4899646;29;20044;-79
2022/04/10 01:47:09;;;;;;;4.53;2.80;;;;;;;5.16;100.00;99699.72;4900261;29;20100;-79
2022/04/10 01:49:38;;;;;;;5.03;2.60;;;;;;;5.07;100.00;99701.00;4899525;29;20140;-78
2022/04/10 01:52:07;;;;;;;4.80;2.63;;;;;;;5.07;100.00;99700.16;4899703;29;20087;-77
2022/04/10 01:54:35;;;;;;;5.53;2.85;;;;;;;4.97;100.00;99699.72;4882766;29;20488;-80
2022/04/10 01:57:06;;;;;;;4.93;2.65;;;;;;;4.96;100.00;99699.78;4899851;29;20446;-81
2022/04/10 01:59:35;;;;;;;4.75;2.58;;;;;;;4.94;100.00;99699.88;4882433;29;20528;-79
2022/04/10 02:02:04;;;;;;;4.53;2.70;;;;;;;4.89;100.00;99708.00;4899763;29;20072;-79
2022/04/10 02:04:33;;;;;;;5.20;2.67;;;;;;;4.91;100.00;99710.56;4899294;29;20359;-78
2022/04/10 02:07:02;;;;;;;4.57;2.47;;;;;;;4.91;100.00;99717.63;4899130;29;20072;-75
2022/04/10 02:09:30;;;;;;;5.25;2.67;;;;;;;4.79;100.00;99713.75;4899090;29;20406;-77
2022/04/10 02:11:58;;;;;;;5.25;2.65;;;;;;;4.84;100.00;99710.00;4882412;29;20053;-77
2022/04/10 02:14:26;;;;;;;4.10;2.83;;;;;;;4.82;100.00;99710.97;4899040;29;20057;-76
2022/04/10 02:16:56;;;;;;;4.78;2.70;;;;;;;4.80;100.00;99716.34;4899005;29;20059;-77
2022/04/10 02:19:24;;;;;;;5.30;2.58;;;;;;;4.76;100.00;99712.13;4899306;29;20040;-77
2022/04/10 02:21:54;;;;;;;5.60;2.40;;;;;;;4.79;100.00;99716.41;4878888;29;20059;-76
2022/04/10 02:24:23;;;;;;;4.35;2.60;;;;;;;4.72;100.00;99726.38;4880306;29;20049;-75
2022/04/10 02:26:51;;;;;;;4.72;2.75;;;;;;;4.73;100.00;99729.88;4880010;29;20053;-76
2022/04/10 02:29:19;;;;;;;5.85;2.85;;;;;;;4.63;100.00;99725.94;4879973;29;20490;-76
2022/04/10 02:31:47;;;;;;;4.75;3.15;;;;;;;4.57;100.00;99735.88;4863370;29;20056;-76
2022/04/10 02:34:17;;;;;;;6.55;3.22;;;;;;;4.55;100.00;99732.44;4880521;29;20057;-77
2022/04/10 02:36:45;;;;;;;6.07;3.40;;;;;;;4.51;100.00;99736.13;4879977;29;20545;-79
2022/04/10 02:39:13;;;;;;;5.55;2.85;;;;;;;4.48;100.00;99745.97;4880024;29;20067;-78
2022/04/10 02:41:42;;;;;;;6.45;3.38;;;;;;;4.49;100.00;99739.75;4879550;29;20049;-77
2022/04/10 02:44:10;;;;;;;5.85;3.17;;;;;;;4.45;100.00;99748.75;4879797;29;20166;-78
2022/04/10 02:46:38;;;;;;;5.88;3.47;;;;;;;4.41;100.00;99742.72;4878961;29;20483;-77
2022/04/10 02:49:07;;;;;;;6.70;3.50;;;;;;;4.33;100.00;99744.84;4880228;29;20045;-77
2022/04/10 02:51:36;;;;;;;5.47;3.53;;;;;;;4.26;100.00;99744.25;4879705;29;20106;-76
2022/04/10 02:54:05;;;;;;;6.70;3.60;;;;;;;4.23;100.00;99746.16;4879775;29;20467;-76
2022/04/10 02:56:33;;;;;;;5.93;3.75;;;;;;;4.16;100.00;99747.34;4878200;29;20055;-76
2022/04/10 02:59:01;;;;;;;6.15;3.50;;;;;;;4.22;100.00;99747.94;4862860;29;20053;-78
2022/04/10 03:01:29;;;;;;;6.75;3.70;;;;;;;4.15;100.00;99749.13;4879676;29;20072;-76
2022/04/10 03:03:58;;;;;;;9.00;3.67;;;;;;;4.16;100.00;99750.00;4862840;29;20080;-77
2022/04/10 03:06:28;;;;;;;5.35;3.13;;;;;;;4.10;100.00;99756.38;4878118;29;20517;-75
2022/04/10 03:09:00;;;;;;;4.60;3.42;;;;;;;4.06;100.00;99756.56;4879728;29;20054;-77
2022/04/10 03:11:28;;;;;;;6.53;3.70;;;;;;;4.10;100.00;99759.00;4863009;29;20052;-78
2022/04/10 03:13:57;;;;;;;5.93;3.40;;;;;;;4.10;100.00;99759.00;4879275;29;20049;-78
2022/04/10 03:16:25;;;;;;;6.18;3.63;;;;;;;4.06;100.00;99764.50;4879247;29;20566;-78
2022/04/10 03:18:53;;;;;;;8.20;3.60;;;;;;;4.03;100.00;99766.31;4862161;29;20192;-78
2022/04/10 03:21:21;;;;;;;6.53;3.72;;;;;;;4.09;100.00;99767.00;4879331;29;20052;-77
2022/04/10 03:23:50;;;;;;;5.63;3.55;;;;;;;4.08;100.00;99773.19;4877451;29;20060;-77
2022/04/10 03:26:19;;;;;;;6.05;3.58;;;;;;;3.93;100.00;99774.66;4877920;29;20049;-78
2022/04/10 03:28:47;;;;;;;6.22;3.33;;;;;;;4.02;100.00;99782.22;4861863;29;20475;-77
2022/04/10 03:31:16;;;;;;;7.18;3.90;;;;;;;3.94;100.00;99787.78;4878979;29;20352;-79
2022/04/10 03:33:44;;;;;;;5.45;3.50;;;;;;;3.97;100.00;99795.63;4877052;29;20061;-79
2022/04/10 03:36:12;;;;;;;6.60;3.88;;;;;;;3.94;100.00;99800.13;4878884;29;20072;-78
2022/04/10 03:38:40;;;;;;;7.43;3.72;;;;;;;3.87;100.00;99799.53;4878772;29;20049;-77
2022/04/10 03:41:09;;;;;;;5.80;3.55;;;;;;;3.82;100.00;99803.28;4877907;29;20135;-76
2022/04/10 03:43:38;;;;;;;6.05;3.65;;;;;;;3.80;100.00;99802.47;4878546;29;20132;-77
2022/04/10 03:46:06;;;;;;;6.03;3.58;;;;;;;3.93;100.00;99799.28;4878864;29;20045;-77
2022/04/10 03:48:35;;;;;;;7.78;3.53;;;;;;;3.86;100.00;99802.22;4878599;29;20481;-79
2022/04/10 03:51:03;;;;;;;6.20;3.75;;;;;;;3.84;100.00;99799.63;4878647;29;20048;-76
2022/04/10 03:53:31;;;;;;;8.48;4.22;;;;;;;3.84;100.00;99804.91;4877929;29;20125;-77
2022/04/10 03:55:59;;;;;;;7.72;4.13;;;;;;;3.82;100.00;99811.19;4878404;29;20066;-78
2022/04/10 03:58:27;;;;;;;5.97;4.00;;;;;;;3.79;100.00;99821.88;4879076;29;20056;-77
2022/04/10 04:00:57;;;;;;;5.70;3.67;;;;;;;3.73;100.00;99813.25;4878404;29;20128;-76
2022/04/10 04:03:26;;;;;;;6.70;4.18;;;;;;;3.72;100.00;99821.22;4878461;29;20049;-76
2022/04/10 04:05:55;;;;;;;7.43;3.95;;;;;;;3.75;100.00;99815.81;4878321;29;20116;-77
2022/04/10 04:08:23;;;;;;;8.07;4.35;;;;;;;3.73;100.00;99812.41;4878605;29;20113;-76
2022/04/10 04:10:54;;;;;;;6.85;4.15;;;;;;;3.67;100.00;99812.66;4877935;29;20064;-76
2022/04/10 04:13:23;;;;;;;6.90;4.07;;;;;;;3.61;100.00;99831.34;4878170;29;20053;-76
2022/04/10 04:15:52;;;;;;;6.43;4.22;;;;;;;3.71;100.00;99822.16;4878667;29;20077;-76
2022/04/10 04:18:21;;;;;;;7.43;4.32;;;;;;;3.66;100.00;99837.28;4878819;29;20075;-78
2022/04/10 04:20:49;;;;;;;7.90;4.50;;;;;;;3.59;100.00;99835.84;4878135;29;20413;-76
2022/04/10 04:23:19;;;;;;;6.07;4.07;;;;;;;3.60;100.00;99842.81;4878531;29;20041;-78
2022/04/10 04:25:47;;;;;;;7.63;4.07;;;;;;;3.58;100.00;99849.94;4877722;29;20056;-78
2022/04/10 04:28:16;;;;;;;6.30;4.22;;;;;;;3.60;100.00;99848.94;4878742;29;20045;-78
2022/04/10 04:30:44;;;;;;;7.43;4.10;;;;;;;3.55;100.00;99847.41;4876947;29;20144;-76
2022/04/10 04:33:12;;;;;;;6.40;4.05;;;;;;;3.59;100.00;99855.16;4878264;29;20088;-77
2022/04/10 04:35:41;;;;;;;5.97;4.22;;;;;;;3.67;100.00;99855.72;4878256;29;20410;-80
2022/04/10 04:38:09;;;;;;;7.38;4.70;;;;;;;3.74;100.00;99857.19;4861131;29;20063;-81
2022/04/10 04:40:37;;;;;;;7.82;4.50;;;;;;;3.70;100.00;99849.47;4877855;29;20072;-79
2022/04/10 04:43:06;;;;;;;9.00;4.90;;;;;;;3.85;100.00;99862.03;4878130;29;20140;-80
2022/04/10 04:45:35;;;;;;;7.55;4.70;;;;;;;3.87;100.00;99856.72;4878325;29;20041;-77
2022/04/10 04:48:04;;;;;;;7.15;4.47;;;;;;;3.93;100.00;99862.59;4878014;29;20056;-77
2022/04/10 04:50:32;;;;;;;5.53;3.92;;;;;;;3.91;100.00;99864.44;4878057;29;20047;-77
2022/04/10 04:53:02;;;;;;;8.05;4.90;;;;;;;3.97;100.00;99866.88;4877847;29;20447;-77
2022/04/10 04:55:30;;;;;;;8.40;4.57;;;;;;;4.16;100.00;99868.78;4878169;29;20531;-77
2022/04/10 04:57:58;;;;;;;7.88;4.40;;;;;;;4.15;100.00;99867.03;4861172;29;20057;-79
2022/04/10 05:00:26;;;;;;;7.28;4.60;;;;;;;4.25;100.00;99868.41;4878126;29;20053;-78
2022/04/10 05:02:54;;;;;;;7.55;4.53;;;;;;;4.44;100.00;99879.94;4876487;29;20053;-78
2022/04/10 05:05:23;;;;;;;6.10;4.20;;;;;;;4.58;100.00;99872.28;4881422;29;20124;-77
2022/04/10 05:07:51;;;;;;;7.25;4.63;;;;;;;4.75;100.00;99878.66;4864917;29;20596;-77
2022/04/10 05:10:21;;;;;;;6.47;4.40;;;;;;;4.79;100.00;99890.81;4882175;29;20155;-76
2022/04/10 05:12:49;;;;;;;8.70;4.78;;;;;;;4.83;100.00;99885.34;4881805;29;20376;-78
2022/04/10 05:15:17;;;;;;;6.70;4.47;;;;;;;4.79;100.00;99869.66;4864851;29;20418;-76
2022/04/10 05:17:45;;;;;;;7.18;4.28;;;;;;;4.94;100.00;99895.47;4880105;29;20076;-75
2022/04/10 05:20:14;;;;;;;6.95;4.25;;;;;;;5.11;100.00;99894.72;4881538;29;20059;-77
2022/04/10 05:22:43;;;;;;;6.85;4.30;;;;;;;4.98;100.00;99902.31;4882035;29;20083;-79
2022/04/10 05:25:11;;;;;;;6.45;4.50;;;;;;;5.09;100.00;99900.06;4881854;29;20072;-76
2022/04/10 05:27:40;;;;;;;6.25;4.05;;;;;;;5.17;100.00;99900.59;4879830;29;20087;-76
2022/04/10 05:30:10;;;;;;;6.60;4.25;;;;;;;5.24;100.00;99903.84;4881360;29;20410;-76
2022/04/10 05:32:42;;;;;;;6.07;3.90;;;;;;;5.16;100.00;99901.53;4881161;29;20131;-76
2022/04/10 05:35:10;;;;;;;7.05;3.83;;;;;;;5.39;100.00;99905.78;4899986;29;20053;-77
2022/04/10 05:37:39;;;;;;;6.90;3.72;;;;;;;5.62;100.00;99910.06;4899541;29;20047;-75
2022/04/10 05:40:08;;;;;;;7.93;4.25;;;;;;;5.70;100.00;99917.66;4899170;29;20466;-75
2022/04/10 05:42:43;;;;;;;6.63;4.55;;;;;;;5.68;100.00;99920.34;4882972;29;20052;-77
2022/04/10 05:45:11;;;;;;;6.50;3.75;;;;;;;5.82;100.00;99922.41;4899815;29;20049;-76
2022/04/10 05:47:41;;;;;;;6.55;3.83;;;;;;;5.90;100.00;99922.06;4882811;29;20051;-77
2022/04/10 05:50:11;;;;;;;7.18;4.35;;;;;;;6.10;100.00;99922.00;4882955;29;20052;-76
2022/04/10 05:52:39;;;;;;;6.57;4.30;;;;;;;6.25;100.00;99915.97;4900096;29;20068;-76
2022/04/10 05:55:09;;;;;;;6.55;4.05;;;;;;;6.27;100.00;99927.38;4882494;29;20052;-77
2022/04/10 05:57:37;;;;;;;5.85;3.75;;;;;;;6.31;100.00;99925.44;4899617;29;20045;-75
2022/04/10 06:00:10;;;;;;;5.97;3.92;;;;;;;6.24;100.00;99930.16;4899352;29;20063;-77
2022/04/10 06:02:39;;;;;;;6.78;3.95;;;;;;;6.37;100.00;99933.09;4882788;29;20079;-76
2022/04/10 06:05:10;;;;;;;6.47;3.95;;;;;;;6.58;100.00;99933.84;4897886;29;20067;-77
2022/04/10 06:07:39;;;;;;;7.07;3.83;;;;;;;6.59;100.00;99936.41;4882588;29;20059;-76
2022/04/10 06:10:08;;;;;;;6.55;4.10;;;;;;;6.64;100.00;99933.53;4882303;29;20056;-75
2022/04/10 06:12:36;;;;;;;5.43;3.78;;;;;;;6.85;100.00;99927.19;4899668;29;20120;-76
2022/04/10 06:15:07;;;;;;;6.20;3.72;;;;;;;6.88;100.00;99931.47;4881946;29;20048;-75
2022/04/10 06:17:35;;;;;;;5.93;3.90;;;;;;;6.97;100.00;99927.50;4897872;29;20048;-78
2022/04/10 06:20:04;;;;;;;5.85;3.60;;;;;;;7.54;100.00;99914.81;4898815;29;20049;-78
2022/04/10 06:22:33;;;;;;;5.28;3.40;;;;;;;7.83;100.00;99932.69;4899539;29;20402;-78
2022/04/10 06:25:01;;;;;;;5.28;3.45;;;;;;;8.75;100.00;99930.25;4882085;29;20070;-79
2022/04/10 06:27:29;;;;;;;4.53;3.25;;;;;;;9.16;100.00;99944.63;4882138;29;20422;-78
2022/04/10 06:29:57;;;;;;;4.93;3.08;;;;;;;8.80;100.00;99936.16;4881709;29;20429;-77
2022/04/10 06:32:27;;;;;;;4.50;3.15;;;;;;;9.34;100.00;99934.69;4899106;29;20123;-78
2022/04/10 06:34:56;;;;;;;5.97;3.53;;;;;;;9.37;100.00;99941.66;4898581;29;20060;-75
2022/04/10 06:37:24;;;;;;;6.18;3.20;;;;;;;9.53;100.00;99942.44;4898431;29;20053;-74
2022/04/10 06:39:52;;;;;;;4.95;3.25;;;;;;;9.14;100.00;99946.53;4881939;29;20056;-79
2022/04/10 06:42:20;;;;;;;5.32;3.22;;;;;;;8.81;100.00;99946.72;4882209;29;20521;-77
2022/04/10 06:44:49;;;;;;;5.80;2.97;;;;;;;9.15;100.00;99940.25;4899074;29;20045;-79
2022/04/10 06:47:17;;;;;;;6.70;3.55;;;;;;;8.64;100.00;99945.97;4887559;29;20052;-78
2022/04/10 06:49:46;;;;;;;4.80;3.38;;;;;;;8.17;100.00;99957.41;4881752;29;20131;-78
2022/04/10 06:52:15;;;;;;;5.13;3.53;;;;;;;8.22;100.00;99960.69;4881833;29;20056;-78
2022/04/10 06:54:43;;;;;;;5.93;3.40;;;;;;;8.17;100.00;99957.41;4898173;29;20048;-77
2022/04/10 06:57:11;;;;;;;5.95;3.42;;;;;;;8.53;100.00;99957.19;4898510;29;20049;-77
2022/04/10 06:59:39;;;;;;;5.38;3.10;;;;;;;8.12;100.00;99976.28;4898792;29;20048;-77
2022/04/10 07:02:08;;;;;;;5.30;3.05;;;;;;;7.77;100.00;99980.81;4881246;29;20091;-79
2022/04/10 07:04:36;;;;;;;5.10;3.17;;;;;;;7.75;100.00;99975.59;4898362;29;20479;-77
2022/04/10 07:07:06;;;;;;;4.82;3.05;;;;;;;7.45;100.00;99983.34;4881417;29;20100;-78
2022/04/10 07:09:34;;;;;;;5.88;3.17;;;;;;;7.57;100.00;99983.66;4897231;29;20179;-81
2022/04/10 07:12:02;;;;;;;5.78;2.70;;;;;;;7.72;100.00;99978.41;4881295;29;20116;-82
2022/04/10 07:14:31;;;;;;;4.15;2.65;;;;;;;7.67;100.00;99976.91;4896834;29;20460;-78
2022/04/10 07:16:59;;;;;;;5.20;3.33;;;;;;;7.69;100.00;99988.31;4898206;29;20045;-78
2022/04/10 07:19:27;;;;;;;5.43;2.90;;;;;;;8.02;100.00;99996.31;4898550;29;20076;-78
2022/04/10 07:24:42;;;;;;;4.45;2.60;;;;;;;8.14;100.00;99987.66;4881232;29;20055;-76
2022/04/10 07:27:11;;;;;;;4.43;2.80;;;;;;;8.22;100.00;99988.09;4880023;29;20116;-77
2022/04/10 07:29:39;;;;;;;5.70;2.85;;;;;;;8.16;100.00;99990.22;4885111;29;20079;-77
2022/04/10 07:32:08;;;;;;;4.45;2.70;;;;;;;8.12;100.00;99988.69;4877722;29;20063;-76
2022/04/10 07:34:36;;;;;;;5.05;2.78;;;;;;;7.93;100.00;100002.09;4862402;29;20122;-75
2022/04/10 07:37:06;;;;;;;4.97;2.72;;;;;;;8.07;100.00;99999.56;4861897;29;20056;-75
2022/04/10 07:39:34;;;;;;;6.60;2.38;;;;;;;8.13;100.00;100019.63;4877664;29;20144;-76
2022/04/10 07:42:06;;;;;;;4.65;2.78;;;;;;;7.97;100.00;100006.31;4862479;29;20061;-76
2022/04/10 07:44:59;;;;;;;5.85;2.80;;;;;;;8.16;100.00;100009.69;4862084;29;20070;-72
2022/04/10 07:47:26;;;;;;;4.63;2.65;;;;;;;7.93;100.00;100004.75;4877870;29;20068;-72
2022/04/10 07:49:54;;;;;;;4.97;2.88;;;;;;;8.20;100.00;100005.06;4861977;29;20140;-75
2022/04/10 07:52:23;;;;;;;3.47;2.38;;;;;;;8.30;99.38;100006.28;4871418;29;20063;-72
2022/04/10 07:54:52;;;;;;;4.20;2.33;;;;;;;8.18;100.00;100017.56;4862030;29;20451;-73
2022/04/10 07:57:22;;;;;;;5.50;2.75;;;;;;;8.39;99.96;100011.09;4877601;29;20489;-73
2022/04/10 07:59:50;;;;;;;5.15;2.47;;;;;;;8.45;99.41;100020.56;4878455;29;20060;-73
2022/04/10 08:02:19;;;;;;;4.75;2.60;;;;;;;8.37;97.50;100020.97;4878309;29;20048;-73
2022/04/10 08:04:47;;;;;;;4.15;2.30;;;;;;;8.32;98.28;100021.22;4877423;29;20422;-72
2022/04/10 08:07:16;;;;;;;4.05;2.63;;;;;;;8.38;96.69;100037.78;4878579;29;20132;-74
2022/04/10 08:09:45;;;;;;;5.15;2.55;;;;;;;8.14;93.71;100031.97;4861674;29;20491;-73
2022/04/10 08:12:13;;;;;;;3.05;2.20;;;;;;;8.17;93.50;100021.16;4861449;29;20076;-72
2022/04/10 08:14:43;;;;;;;4.05;2.60;;;;;;;8.32;91.90;100017.69;4861383;29;20084;-73
2022/04/10 08:17:12;;;;;;;5.25;2.22;;;;;;;8.27;93.28;100033.00;4876546;29;20053;-72
2022/04/10 08:19:40;;;;;;;5.32;2.63;;;;;;;8.43;94.20;100028.63;4861692;29;20065;-72
2022/04/10 08:22:08;;;;;;;4.82;2.97;;;;;;;8.53;93.00;100024.50;4876427;29;20049;-73
2022/04/10 08:24:36;;;;;;;4.13;2.25;;;;;;;8.51;91.66;100030.88;4878238;29;20073;-71
2022/04/10 08:27:04;;;;;;;5.45;2.60;;;;;;;8.72;91.75;100034.13;4877971;29;20180;-74
2022/04/10 08:29:33;;;;;;;4.43;2.22;;;;;;;8.78;86.01;100033.78;4878214;29;20388;-72
2022/04/10 08:32:03;;;;;;;3.45;2.13;;;;;;;8.91;83.16;100029.50;4860955;29;20061;-73
2022/04/10 08:34:31;;;;;;;3.88;1.65;;;;;;;8.82;74.98;100041.50;4860945;29;20057;-72
2022/04/10 08:37:04;;;;;;;4.28;2.40;;;;;;;8.87;73.46;100022.63;4861102;29;20136;-72
2022/04/10 08:39:33;;;;;;;3.00;2.00;;;;;;;8.65;74.37;100022.13;4881570;29;20052;-72
2022/04/10 08:42:03;;;;;;;4.10;2.40;;;;;;;8.80;74.24;100031.91;4894438;29;20418;-76
2022/04/10 08:44:37;;;;;;;4.50;2.60;;;;;;;8.78;75.11;100031.09;4900980;29;20065;-75
2022/04/10 08:47:07;;;;;;;3.53;2.00;;;;;;;8.75;73.02;100032.16;4884870;29;20053;-74
2022/04/10 08:49:35;;;;;;;3.85;2.40;;;;;;;8.81;74.00;100038.94;4886178;29;20151;-75
2022/04/10 08:52:04;;;;;;;3.35;2.03;;;;;;;8.84;72.44;100022.78;4885676;29;20052;-75
2022/04/10 08:54:35;;;;;;;3.33;2.10;;;;;;;8.89;74.86;100036.72;4885616;29;20108;-75
2022/04/10 08:57:04;;;;;;;3.53;2.35;;;;;;;8.96;69.55;100029.22;4885627;29;20064;-76
2022/04/10 08:59:32;;;;;;;4.00;2.10;;;;;;;9.22;69.45;100038.38;4885800;29;20075;-75
2022/04/10 09:02:00;;;;;;;3.90;2.08;;;;;;;9.15;69.50;100027.22;4902778;29;20049;-75
2022/04/10 09:04:31;;;;;;;3.35;2.13;;;;;;;9.29;70.14;100034.41;4886143;29;20179;-75
2022/04/10 09:07:02;;;;;;;3.88;2.30;;;;;;;9.24;70.53;100047.97;4903083;29;20127;-75
2022/04/10 09:09:32;;;;;;;3.85;2.33;;;;;;;9.41;72.60;100039.00;4902636;29;20091;-75
2022/04/10 09:12:01;;;;;;;4.68;2.40;;;;;;;9.42;69.04;100041.59;4885904;29;20076;-75
2022/04/10 09:14:34;;;;;;;3.92;2.33;;;;;;;9.24;69.64;100031.16;4902782;29;20055;-75
2022/04/10 09:17:13;;;;;;;3.95;2.08;;;;;;;9.34;66.77;100022.53;4902465;29;20056;-75
2022/04/10 09:19:47;;;;;;;3.63;1.92;;;;;;;9.31;64.53;100035.19;4885930;29;20052;-76
2022/04/10 09:22:23;;;;;;;3.55;2.05;;;;;;;9.53;64.76;100056.91;4885485;29;20392;-75
2022/04/10 09:25:07;;;;;;;3.55;2.20;;;;;;;9.39;64.65;100041.78;4886167;29;20068;-75
2022/04/10 09:27:37;;;;;;;3.05;1.80;;;;;;;9.38;65.02;100031.22;4902641;29;20052;-74
2022/04/10 09:30:07;;;;;;;5.43;2.10;;;;;;;9.89;62.74;100031.72;4885290;29;20055;-74
2022/04/10 09:32:43;;;;;;;3.05;1.80;;;;;;;9.93;61.57;100033.22;4885907;29;20115;-75
2022/04/10 09:35:15;;;;;;;2.95;1.95;;;;;;;9.81;61.18;100044.63;4902302;29;20498;-75
2022/04/10 09:37:48;;;;;;;3.03;1.95;;;;;;;9.61;59.99;100030.69;4902555;29;20048;-75
2022/04/10 09:40:24;;;;;;;;;;;;;;;9.76;60.27;100047.59;4902800;29;20625;-74
2022/04/10 09:42:57;;;;;;;4.25;2.10;;;;;;;9.87;64.04;100036.28;4885467;29;19924;-74
2022/04/10 09:45:35;;;;;;;3.42;2.00;;;;;;;9.96;59.42;100052.56;4885643;29;20052;-74
2022/04/10 09:48:19;;;;;;;3.45;1.80;;;;;;;9.86;57.25;100050.56;4885337;29;20052;-76
2022/04/10 09:50:52;;;;;;;3.25;2.00;;;;;;;9.89;58.59;100039.69;4881610;29;20052;-75
2022/04/10 09:53:21;;;;;;;3.72;1.98;;;;;;;10.04;59.06;100036.13;4882072;29;20133;-74
2022/04/10 09:55:54;;;;;;;3.65;1.83;;;;;;;10.24;58.26;100024.25;4882563;29;20044;-75
2022/04/10 09:58:24;;;;;;;3.55;2.13;;;;;;;10.17;57.52;100033.53;4882414;29;20056;-76
2022/04/10 10:00:56;;;;;;;1.92;1.60;;;;;;;9.90;57.98;100030.75;4899595;29;20051;-74
2022/04/10 10:03:33;;;;;;;3.50;2.20;;;;;;;9.73;57.55;100029.09;4899146;29;20139;-75
2022/04/10 10:06:03;;;;;;;3.25;2.28;;;;;;;9.89;58.54;100037.03;4899625;29;20108;-75
2022/04/10 10:08:31;;;;;;;3.22;1.70;;;;;;;9.52;58.28;100031.25;4882516;29;20152;-75
2022/04/10 10:11:01;;;;;;;3.47;1.85;;;;;;;9.37;57.46;100034.84;4899006;29;20111;-75
2022/04/10 10:13:31;;;;;;;3.22;2.08;;;;;;;9.91;58.59;100035.13;4882493;29;20094;-74
2022/04/10 10:16:00;;;;;;;3.92;1.80;;;;;;;10.05;55.12;100040.50;4882128;29;20052;-75
2022/04/10 10:18:29;;;;;;;4.05;1.95;;;;;;;10.10;54.01;100043.72;4881841;29;20048;-75
2022/04/10 10:20:57;;;;;;;3.35;2.35;;;;;;;9.92;54.66;100050.16;4881861;29;20084;-75
2022/04/10 10:23:28;;;;;;;4.00;1.90;;;;;;;10.01;53.48;100034.47;4898716;29;20061;-75
2022/04/10 10:26:11;;;;;;;3.63;1.50;;;;;;;9.97;51.48;100038.28;4899002;29;20367;-75
2022/04/10 10:29:08;;;;;;;2.65;1.70;;;;;;;10.16;52.30;100059.34;4881933;29;20075;-74
2022/04/10 10:31:54;;;;;;;4.28;1.75;;;;;;;10.12;51.46;100046.28;4881791;29;20048;-74
2022/04/10 10:34:26;;;;;;;3.13;1.67;;;;;;;10.12;52.38;100039.13;4881718;29;20374;-75
2022/04/10 10:36:55;;;;;;;4.10;1.70;;;;;;;9.85;51.06;100046.19;4881433;29;20052;-75
2022/04/10 10:39:24;;;;;;;4.97;2.00;;;;;;;9.93;50.88;100041.22;4881554;29;20128;-74
2022/04/10 10:41:53;;;;;;;2.92;1.75;;;;;;;10.19;50.57;100043.16;4898435;29;20085;-74
2022/04/10 10:44:41;;;;;;;3.15;1.80;;;;;;;10.54;49.82;100048.13;4881177;29;20547;-74
2022/04/10 10:47:22;;;;;;;3.70;1.58;;;;;;;10.46;48.33;100039.75;4881634;29;20387;-74
2022/04/10 10:49:51;;;;;;;3.47;1.58;;;;;;;10.26;47.85;100039.19;4881919;29;20049;-74
2022/04/10 10:52:21;;;;;;;2.92;1.65;;;;;;;10.32;48.89;100037.94;4898590;29;20188;-78
2022/04/10 10:54:56;;;;;;;3.53;1.52;;;;;;;10.07;49.29;100043.91;4881516;29;20092;-77
2022/04/10 10:57:30;;;;;;;4.72;1.90;;;;;;;10.14;48.47;100031.94;4898984;29;20166;-76
2022/04/10 11:00:14;;;;;;;2.47;1.38;;;;;;;10.03;48.07;100026.38;4881588;29;20091;-76
2022/04/10 11:02:49;;;;;;;3.47;1.60;;;;;;;10.49;47.09;100044.88;4898274;29;20112;-77
2022/04/10 11:05:32;;;;;;;2.88;1.40;;;;;;;10.55;45.61;100029.34;4898028;29;20079;-78
2022/04/10 11:08:04;;;;;;;3.78;1.58;;;;;;;10.35;46.25;100031.56;4881088;29;20060;-77
2022/04/10 11:10:37;;;;;;;3.92;1.60;;;;;;;10.31;46.37;100031.75;4898024;29;20044;-76
2022/04/10 11:13:09;;;;;;;3.33;1.70;;;;;;;10.15;45.75;100032.78;4881098;29;20482;-77
2022/04/10 11:15:47;;;;;;;2.70;1.60;;;;;;;10.20;46.15;100028.88;4881475;29;20052;-75
2022/04/10 11:18:31;;;;;;;3.28;1.67;;;;;;;10.17;44.04;100029.06;4881363;29;20059;-77
2022/04/10 11:21:05;;;;;;;;;;;;;;;10.50;44.40;100019.94;4898010;29;20091;-75
2022/04/10 11:23:41;;;;;;;3.97;1.60;;;;;;;10.17;43.73;100025.53;4880665;29;19923;-76
2022/04/10 11:26:17;;;;;;;3.58;1.58;;;;;;;10.40;44.30;100030.31;4897957;29;20083;-76
2022/04/10 11:29:03;;;;;;;3.28;1.73;;;;;;;10.65;45.34;100034.97;4898022;29;20052;-74
2022/04/10 11:31:33;;;;;;;3.85;1.70;;;;;;;10.63;44.44;100047.56;4880646;29;20057;-77
2022/04/10 11:34:15;;;;;;;2.40;1.60;;;;;;;10.68;44.05;100033.91;4880603;29;20410;-75
2022/04/10 11:36:52;;;;;;;6.03;1.90;;;;;;;10.54;44.48;100032.13;4880985;29;20104;-77
2022/04/10 11:39:26;;;;;;;3.30;1.85;;;;;;;10.44;44.39;100037.19;4897243;29;20041;-75
2022/04/10 11:41:59;;;;;;;3.53;1.55;;;;;;;10.40;43.80;100034.78;4880916;29;20055;-75
2022/04/10 11:44:31;;;;;;;3.15;1.60;;;;;;;10.65;43.49;100034.09;4896993;29;20508;-76
2022/04/10 11:47:00;;;;;;;2.90;1.60;;;;;;;10.56;42.86;100035.56;4880612;29;20059;-75